Time;durP1;ratioP1;P1;durP2;ratioP2;P2;SDS_P1;SDS_P2;PMS_P1;PMS_P2;Temp;Humidity;BMP_temperature;BMP_pressure;BME280_temperature;BME280_humidity;BME280_pressure;Samples;Min_cycle;Max_cycle;Signal;HPM_P1;HPM_P2
2023/06/02 00:01:32;;;;;;;12.90;4.50;;;;;;;15.76;56.31;99662.94;104812;1252;95978;-65
2023/06/02 00:04:02;;;;;;;14.30;5.40;;;;;;;15.66;56.68;99663.15;104796;1253;108564;-64
2023/06/02 00:06:32;;;;;;;13.00;4.70;;;;;;;15.59;56.99;99665.86;104637;1253;138674;-64
2023/06/02 00:09:03;;;;;;;10.80;5.30;;;;;;;15.52;57.21;99664.39;104774;1255;111515;-64
2023/06/02 00:11:34;;;;;;;10.00;5.10;;;;;;;15.45;57.42;99669.37;104667;1253;139262;-64
2023/06/02 00:14:04;;;;;;;16.10;6.00;;;;;;;15.39;57.71;99669.39;104723;1253;96607;-64
2023/06/02 00:16:33;;;;;;;16.70;6.10;;;;;;;15.35;57.89;99670.68;104761;1256;107466;-64
2023/06/02 00:19:00;;;;;;;13.20;5.20;;;;;;;15.30;57.98;99671.73;104609;1253;139025;-65
2023/06/02 00:21:28;;;;;;;14.50;5.60;;;;;;;15.20;58.15;99670.71;104807;1256;110795;-65
2023/06/02 00:23:55;;;;;;;11.60;5.00;;;;;;;15.15;58.48;99675.97;104632;1256;139122;-65
2023/06/02 00:26:22;;;;;;;17.70;5.10;;;;;;;15.07;58.44;99671.66;104761;1253;95898;-65
2023/06/02 00:28:51;;;;;;;16.10;5.40;;;;;;;15.02;58.54;99669.67;104753;1256;108150;-65
2023/06/02 00:31:18;;;;;;;14.80;5.60;;;;;;;14.99;58.72;99667.03;104604;1257;138499;-64
2023/06/02 00:33:46;;;;;;;14.00;5.60;;;;;;;14.98;58.94;99671.83;104735;1257;111191;-64
2023/06/02 00:36:13;;;;;;;12.40;5.40;;;;;;;14.97;58.79;99674.70;104574;1256;138757;-64
2023/06/02 00:38:41;;;;;;;14.70;5.80;;;;;;;14.93;58.94;99675.83;104794;1253;96141;-64
2023/06/02 00:41:08;;;;;;;10.30;5.60;;;;;;;14.92;59.15;99677.34;104748;1253;107073;-64
2023/06/02 00:43:35;;;;;;;11.60;5.70;;;;;;;14.90;59.18;99676.39;104813;1253;95941;-64
2023/06/02 00:46:03;;;;;;;14.30;5.80;;;;;;;14.87;59.17;99680.77;104750;1253;110850;-65
2023/06/02 00:48:30;;;;;;;13.30;5.50;;;;;;;14.83;59.37;99678.51;104490;1259;138525;-64
2023/06/02 00:50:57;;;;;;;14.90;5.80;;;;;;;14.81;59.38;99680.56;104808;1254;95836;-64
2023/06/02 00:53:25;;;;;;;17.00;5.80;;;;;;;14.76;59.32;99683.14;104670;1253;138859;-65
2023/06/02 00:55:53;;;;;;;17.70;6.00;;;;;;;14.70;59.65;99686.65;104732;1255;95554;-65
2023/06/02 00:58:22;;;;;;;14.50;5.60;;;;;;;14.61;59.50;99685.92;104761;1253;111519;-64
2023/06/02 01:00:49;;;;;;;13.80;5.90;;;;;;;14.56;59.72;99686.75;104513;1253;138931;-65
2023/06/02 01:03:17;;;;;;;10.80;5.20;;;;;;;14.54;59.95;99685.45;104753;1254;97152;-65
2023/06/02 01:05:45;;;;;;;11.50;5.40;;;;;;;14.52;60.00;99681.34;104709;1255;139496;-64
2023/06/02 01:08:14;;;;;;;12.40;5.40;;;;;;;14.47;60.17;99680.60;104615;1259;96074;-65
2023/06/02 01:10:42;;;;;;;11.70;5.80;;;;;;;14.43;60.18;99683.08;104737;1253;112221;-65
2023/06/02 01:13:10;;;;;;;13.20;5.90;;;;;;;14.39;60.31;99686.30;104657;1254;138544;-64
2023/06/02 01:15:37;;;;;;;12.20;5.40;;;;;;;14.34;60.38;99686.91;104739;1257;95724;-65
2023/06/02 01:18:09;;;;;;;9.60;5.40;;;;;;;14.28;60.53;99687.62;104707;1255;138386;-64
2023/06/02 01:20:40;;;;;;;14.70;5.60;;;;;;;14.24;60.79;99685.42;104862;1253;95770;-65
2023/06/02 01:23:15;;;;;;;15.60;5.70;;;;;;;14.20;60.87;99689.97;104758;1257;111643;-64
2023/06/02 01:25:44;;;;;;;15.30;5.90;;;;;;;14.17;60.84;99689.63;104658;1256;107768;-64
2023/06/02 01:28:11;;;;;;;13.90;6.00;;;;;;;14.14;61.10;99692.39;104751;1253;96343;-64
2023/06/02 01:30:38;;;;;;;13.60;5.80;;;;;;;14.12;61.38;99688.99;104576;1254;138365;-62
2023/06/02 01:33:11;;;;;;;13.80;6.20;;;;;;;14.13;61.39;99690.69;104680;1253;95905;-63
2023/06/02 01:35:43;;;;;;;16.90;6.00;;;;;;;14.17;61.43;99690.64;104662;1253;139044;-63
2023/06/02 01:38:13;;;;;;;18.90;5.90;;;;;;;14.17;61.64;99686.63;104564;1259;107113;-64
2023/06/02 01:40:41;;;;;;;13.70;5.50;;;;;;;14.17;61.66;99688.54;104747;1254;95987;-64
2023/06/02 01:43:09;;;;;;;14.60;5.80;;;;;;;14.15;61.51;99686.55;104668;1254;138807;-64
2023/06/02 01:45:38;;;;;;;19.70;6.10;;;;;;;14.10;61.61;99689.68;104739;1252;95821;-64
2023/06/02 01:48:08;;;;;;;14.80;6.10;;;;;;;14.08;61.71;99688.70;104666;1253;138240;-64
2023/06/02 01:50:37;;;;;;;14.80;6.00;;;;;;;14.07;62.00;99685.12;104707;1256;107682;-64
2023/06/02 01:53:04;;;;;;;13.80;6.40;;;;;;;14.09;61.93;99683.29;104758;1256;96259;-64
2023/06/02 01:55:33;;;;;;;16.80;5.50;;;;;;;14.07;61.90;99683.02;104579;1254;138251;-64
2023/06/02 01:58:00;;;;;;;11.40;5.90;;;;;;;14.05;61.99;99679.80;104704;1253;95927;-65
2023/06/02 02:00:28;;;;;;;13.60;6.70;;;;;;;14.03;61.98;99674.32;104530;1257;138316;-65
2023/06/02 02:02:56;;;;;;;13.20;6.40;;;;;;;14.02;61.94;99677.00;104703;1253;107621;-65
2023/06/02 02:05:23;;;;;;;14.20;6.50;;;;;;;14.01;62.02;99680.04;104613;1253;144062;-65
2023/06/02 02:07:52;;;;;;;13.50;6.70;;;;;;;13.99;62.21;99683.95;104740;1254;106814;-65
2023/06/02 02:10:19;;;;;;;16.00;6.40;;;;;;;13.95;62.12;99682.27;104714;1257;95816;-65
2023/06/02 02:12:47;;;;;;;15.70;6.10;;;;;;;13.94;62.48;99687.25;104615;1254;138667;-65
2023/06/02 02:15:15;;;;;;;16.30;6.80;;;;;;;13.89;62.42;99686.27;104660;1253;107497;-65
2023/06/02 02:17:47;;;;;;;13.80;6.10;;;;;;;13.84;62.53;99686.71;104658;1254;139105;-66
2023/06/02 02:20:19;;;;;;;14.80;6.70;;;;;;;13.83;62.68;99684.52;104737;1255;107597;-64
2023/06/02 02:22:47;;;;;;;14.80;6.50;;;;;;;13.83;62.80;99679.77;104753;1256;96026;-64
2023/06/02 02:25:15;;;;;;;14.10;6.40;;;;;;;13.82;62.89;99679.85;104704;1253;139036;-65
2023/06/02 02:27:43;;;;;;;21.90;7.50;;;;;;;13.82;62.94;99677.41;104553;1254;107035;-64
2023/06/02 02:30:11;;;;;;;17.00;6.60;;;;;;;13.79;63.03;99679.27;104569;1254;138633;-65
2023/06/02 02:32:44;;;;;;;13.90;6.60;;;;;;;13.80;63.22;99679.61;104701;1253;107402;-65
2023/06/02 02:35:12;;;;;;;19.10;6.70;;;;;;;13.80;63.20;99676.82;104702;1257;95830;-65
2023/06/02 02:37:40;;;;;;;14.30;6.80;;;;;;;13.78;63.05;99675.85;104655;1254;111802;-65
2023/06/02 02:40:16;;;;;;;15.00;7.40;;;;;;;13.79;63.24;99673.05;104735;1254;107723;-65
2023/06/02 02:42:44;;;;;;;16.50;6.50;;;;;;;13.79;63.18;99670.88;104553;1254;138850;-64
2023/06/02 02:45:12;;;;;;;17.90;6.80;;;;;;;13.79;63.15;99677.01;104604;1254;107197;-64
2023/06/02 02:47:40;;;;;;;14.20;6.50;;;;;;;13.78;63.10;99678.81;104585;1253;139350;-64
2023/06/02 02:50:08;;;;;;;18.50;7.30;;;;;;;13.72;63.34;99681.76;104900;1254;110592;-64
2023/06/02 02:52:36;;;;;;;15.90;7.10;;;;;;;13.70;63.38;99675.27;104621;1257;107285;-64
2023/06/02 02:55:04;;;;;;;14.00;7.40;;;;;;;13.68;63.39;99678.38;104636;1254;139034;-64
2023/06/02 02:57:31;;;;;;;17.80;7.40;;;;;;;13.64;63.55;99678.56;104635;1254;107914;-64
2023/06/02 02:59:59;;;;;;;14.70;6.80;;;;;;;13.59;63.65;99681.09;104662;1254;138512;-64
2023/06/02 03:02:28;;;;;;;17.60;7.10;;;;;;;13.56;63.79;99685.83;104807;1253;111391;-64
2023/06/02 03:04:56;;;;;;;14.80;7.90;;;;;;;13.50;64.01;99686.13;104654;1254;107717;-64
2023/06/02 03:07:24;;;;;;;16.20;8.10;;;;;;;13.46;64.12;99682.48;104566;1258;138453;-64
2023/06/02 03:09:52;;;;;;;13.10;7.10;;;;;;;13.41;64.15;99683.64;104666;1257;107814;-64
2023/06/02 03:12:19;;;;;;;15.00;6.90;;;;;;;13.39;64.27;99684.43;104537;1255;138879;-63
2023/06/02 03:14:47;;;;;;;18.10;8.30;;;;;;;13.37;64.45;99683.85;104839;1256;110764;-64
2023/06/02 03:17:14;;;;;;;18.80;8.10;;;;;;;13.32;64.60;99682.02;104650;1254;107889;-64
2023/06/02 03:19:42;;;;;;;14.70;7.50;;;;;;;13.25;64.68;99681.45;104800;1254;95978;-64
2023/06/02 03:22:10;;;;;;;17.90;8.80;;;;;;;13.22;64.96;99682.17;104633;1254;107080;-64
2023/06/02 03:24:38;;;;;;;14.00;7.90;;;;;;;13.17;65.08;99686.97;104669;1252;138461;-64
2023/06/02 03:27:13;;;;;;;19.70;8.20;;;;;;;13.15;65.10;99690.02;104753;1254;111441;-65
2023/06/02 03:29:43;;;;;;;15.30;7.30;;;;;;;13.17;65.42;99693.59;104484;1254;140034;-64
2023/06/02 03:32:13;;;;;;;14.80;7.70;;;;;;;13.22;65.35;99695.95;104692;1254;96150;-65
2023/06/02 03:34:40;;;;;;;20.00;9.20;;;;;;;13.25;65.58;99700.54;104826;1254;106126;-64
2023/06/02 03:37:10;;;;;;;16.60;8.00;;;;;;;13.22;65.51;99705.02;104673;1254;138480;-65
2023/06/02 03:39:37;;;;;;;17.30;8.50;;;;;;;13.24;65.72;99703.00;104780;1254;110460;-65
2023/06/02 03:42:05;;;;;;;20.20;8.40;;;;;;;13.24;65.84;99703.88;104624;1254;139609;-65
2023/06/02 03:44:33;;;;;;;24.70;9.80;;;;;;;13.28;65.76;99705.80;104644;1258;95935;-65
2023/06/02 03:47:02;;;;;;;16.90;8.60;;;;;;;13.30;65.83;99699.23;104674;1253;107791;-65
2023/06/02 03:49:31;;;;;;;18.80;9.30;;;;;;;13.34;65.97;99700.98;104661;1253;138481;-65
2023/06/02 03:52:00;;;;;;;19.90;9.60;;;;;;;13.33;65.82;99701.73;104753;1254;111454;-65
2023/06/02 03:54:27;;;;;;;19.00;8.60;;;;;;;13.30;65.92;99705.66;104610;1254;138727;-65
2023/06/02 03:56:54;;;;;;;19.10;8.50;;;;;;;13.35;65.98;99712.97;104740;1253;95896;-64
2023/06/02 03:59:21;;;;;;;17.60;8.70;;;;;;;13.35;66.03;99716.11;104682;1254;138546;-64
2023/06/02 04:01:49;;;;;;;18.30;8.90;;;;;;;13.34;66.02;99719.10;104741;1254;95795;-65
2023/06/02 04:04:17;;;;;;;21.10;9.00;;;;;;;13.35;66.11;99721.82;104637;1254;111531;-65
2023/06/02 04:06:44;;;;;;;24.60;9.90;;;;;;;13.35;66.11;99717.98;104619;1254;138596;-65
2023/06/02 04:09:13;;;;;;;21.80;10.80;;;;;;;13.35;66.17;99720.09;104680;1254;95922;-65
2023/06/02 04:11:43;;;;;;;25.00;11.60;;;;;;;13.37;66.23;99719.29;104496;1254;138970;-65
2023/06/02 04:14:11;;;;;;;18.90;9.20;;;;;;;13.38;66.20;99717.82;104703;1254;96465;-64
2023/06/02 04:16:41;;;;;;;15.70;9.90;;;;;;;13.41;66.08;99718.89;104629;1254;111114;-64
2023/06/02 04:19:09;;;;;;;15.80;9.10;;;;;;;13.41;66.14;99721.17;104531;1253;138610;-65
2023/06/02 04:21:37;;;;;;;19.40;9.50;;;;;;;13.41;66.13;99727.29;104577;1257;96256;-64
2023/06/02 04:24:05;;;;;;;18.00;9.60;;;;;;;13.39;66.07;99728.97;104441;1254;138540;-63
2023/06/02 04:26:32;;;;;;;14.30;8.60;;;;;;;13.43;66.26;99721.97;104587;1254;95977;-65
2023/06/02 04:29:00;;;;;;;18.30;8.30;;;;;;;13.50;66.17;99715.31;104767;1253;111062;-65
2023/06/02 04:31:42;;;;;;;22.00;9.50;;;;;;;13.56;66.05;99715.52;104509;1254;138530;-65
2023/06/02 04:34:13;;;;;;;17.20;8.80;;;;;;;13.65;66.02;99715.02;104738;1254;97305;-65
2023/06/02 04:36:41;;;;;;;14.90;8.70;;;;;;;13.73;65.78;99720.52;104657;1253;138380;-65
2023/06/02 04:39:10;;;;;;;20.10;8.50;;;;;;;13.80;65.74;99726.76;104663;1254;96004;-65
2023/06/02 04:41:38;;;;;;;13.20;7.70;;;;;;;13.88;65.58;99729.48;104515;1254;139174;-65
2023/06/02 04:44:08;;;;;;;16.30;8.00;;;;;;;13.93;65.43;99730.65;104570;1254;106746;-64
2023/06/02 04:46:37;;;;;;;18.10;8.00;;;;;;;14.00;65.38;99732.55;104707;1254;96057;-74
2023/06/02 04:49:08;;;;;;;15.80;8.50;;;;;;;14.05;65.35;99733.67;104605;1254;138465;-75
2023/06/02 04:51:38;;;;;;;16.80;8.20;;;;;;;14.12;65.08;99731.17;104600;1254;95755;-73
2023/06/02 04:54:08;;;;;;;15.00;8.70;;;;;;;14.16;64.86;99733.02;104656;1254;138925;-72
2023/06/02 04:56:37;;;;;;;15.00;8.30;;;;;;;14.15;64.67;99737.07;104662;1254;107616;-72
2023/06/02 04:59:11;;;;;;;18.80;8.90;;;;;;;14.17;64.57;99734.52;104708;1254;95780;-73
2023/06/02 05:01:40;;;;;;;21.20;9.00;;;;;;;14.18;64.69;99731.34;104616;1254;107714;-73
2023/06/02 05:04:08;;;;;;;15.20;7.70;;;;;;;14.20;64.60;99737.18;104622;1254;96007;-73
2023/06/02 05:06:38;;;;;;;16.00;8.30;;;;;;;14.25;64.63;99737.95;104637;1254;138289;-73
2023/06/02 05:09:05;;;;;;;16.70;7.70;;;;;;;14.28;64.52;99737.30;104746;1254;107665;-71
2023/06/02 05:11:34;;;;;;;16.20;7.80;;;;;;;14.29;64.51;99737.39;104539;1254;139050;-73
2023/06/02 05:14:03;;;;;;;15.10;7.40;;;;;;;14.30;64.54;99737.70;104641;1254;107831;-73
2023/06/02 05:16:31;;;;;;;20.10;9.10;;;;;;;14.26;64.33;99741.73;104652;1254;96252;-74
2023/06/02 05:19:00;;;;;;;22.50;9.10;;;;;;;14.29;64.48;99744.20;104486;1254;138418;-74
2023/06/02 05:21:28;;;;;;;23.40;8.90;;;;;;;14.31;64.43;99748.48;104625;1253;108428;-73
2023/06/02 05:23:58;;;;;;;16.60;8.10;;;;;;;14.26;64.32;99744.39;104505;1254;138890;-73
2023/06/02 05:26:26;;;;;;;17.60;8.10;;;;;;;14.23;64.27;99743.00;104789;1256;107366;-74
2023/06/02 05:28:54;;;;;;;23.60;8.30;;;;;;;14.21;64.45;99742.58;104770;1254;96094;-74
2023/06/02 05:31:22;;;;;;;18.80;8.60;;;;;;;14.23;64.54;99741.04;104540;1254;138674;-74
2023/06/02 05:33:50;;;;;;;15.70;7.90;;;;;;;14.25;64.55;99746.89;104650;1254;107696;-74
2023/06/02 05:36:17;;;;;;;19.00;7.90;;;;;;;14.29;64.76;99747.02;104585;1254;139299;-74
2023/06/02 05:38:45;;;;;;;16.20;8.10;;;;;;;14.36;64.62;99746.48;104751;1254;107097;-76
2023/06/02 05:41:13;;;;;;;14.60;7.60;;;;;;;14.36;64.24;99746.45;104588;1254;95752;-74
2023/06/02 05:43:41;;;;;;;14.10;8.10;;;;;;;14.36;64.43;99749.92;104691;1254;111283;-70
2023/06/02 05:46:08;;;;;;;12.30;7.20;;;;;;;14.42;64.37;99755.40;104607;1254;105994;-70
2023/06/02 05:48:36;;;;;;;17.20;7.60;;;;;;;14.44;64.35;99759.81;104565;1254;138819;-69
2023/06/02 05:51:04;;;;;;;16.20;7.80;;;;;;;14.49;64.31;99762.71;104670;1254;107132;-68
2023/06/02 05:53:31;;;;;;;16.70;7.80;;;;;;;14.52;64.12;99770.39;104693;1252;138819;-69
2023/06/02 05:55:59;;;;;;;16.90;8.10;;;;;;;14.54;64.14;99771.36;104813;1254;110764;-70
2023/06/02 05:58:27;;;;;;;19.00;7.60;;;;;;;14.61;64.20;99773.98;104703;1252;108055;-70
2023/06/02 06:00:54;;;;;;;16.90;8.20;;;;;;;14.66;64.14;99778.56;104658;1253;138600;-70
2023/06/02 06:03:21;;;;;;;18.50;8.10;;;;;;;14.67;63.92;99778.34;104638;1253;108046;-70
2023/06/02 06:05:50;;;;;;;12.10;8.00;;;;;;;14.65;63.95;99779.34;104698;1253;139163;-70
2023/06/02 06:08:17;;;;;;;15.90;8.10;;;;;;;14.61;63.85;99783.72;104747;1253;111638;-71
2023/06/02 06:10:44;;;;;;;14.10;7.10;;;;;;;14.59;63.92;99778.43;104767;1253;107291;-77
2023/06/02 06:13:15;;;;;;;16.70;8.10;;;;;;;14.55;64.08;99775.54;104597;1253;138839;-79
2023/06/02 06:15:42;;;;;;;17.50;9.30;;;;;;;14.52;64.13;99776.52;104629;1253;107700;-78
2023/06/02 06:18:09;;;;;;;11.90;7.60;;;;;;;14.47;64.17;99776.82;104466;1253;139228;-78
2023/06/02 06:20:37;;;;;;;13.50;8.00;;;;;;;14.43;64.53;99777.39;104794;1253;111330;-78
2023/06/02 06:23:04;;;;;;;15.40;8.20;;;;;;;14.42;64.58;99781.45;104601;1254;108034;-79
2023/06/02 06:25:33;;;;;;;14.80;8.10;;;;;;;14.37;64.69;99786.79;104512;1253;138629;-80
2023/06/02 06:28:01;;;;;;;19.20;7.60;;;;;;;14.34;64.83;99793.26;104642;1253;108636;-80
2023/06/02 06:30:29;;;;;;;15.30;7.20;;;;;;;14.28;64.92;99792.00;104543;1254;138546;-78
2023/06/02 06:33:00;;;;;;;13.20;7.80;;;;;;;14.28;65.14;99796.21;104688;1253;110778;-78
2023/06/02 06:35:28;;;;;;;12.80;7.50;;;;;;;14.29;65.27;99794.78;104618;1253;139466;-78
2023/06/02 06:37:58;;;;;;;15.20;8.10;;;;;;;14.26;65.20;99797.52;104728;1253;95997;-78
2023/06/02 06:40:26;;;;;;;14.90;7.30;;;;;;;14.24;65.46;99798.39;104690;1253;108935;-78
2023/06/02 06:42:53;;;;;;;13.90;7.30;;;;;;;14.20;65.55;99801.69;104629;1253;139957;-79
2023/06/02 06:45:29;;;;;;;13.50;7.20;;;;;;;14.16;65.77;99799.81;104786;1253;112356;-79
2023/06/02 06:47:57;;;;;;;13.70;7.20;;;;;;;14.11;66.03;99800.61;104548;1253;138817;-78
2023/06/02 06:50:24;;;;;;;16.90;8.00;;;;;;;14.08;66.35;99802.91;104799;1253;96210;-78
2023/06/02 06:52:52;;;;;;;17.90;7.50;;;;;;;14.04;66.42;99807.16;104742;1254;107802;-78
2023/06/02 06:55:19;;;;;;;14.00;7.40;;;;;;;14.01;66.55;99816.02;104615;1257;138835;-78
2023/06/02 06:57:47;;;;;;;16.10;6.70;;;;;;;14.01;66.89;99819.00;104729;1253;111823;-78
2023/06/02 07:00:17;;;;;;;18.00;7.30;;;;;;;14.02;66.99;99821.92;104481;1253;138494;-79
2023/06/02 07:02:48;;;;;;;21.30;9.90;;;;;;;14.04;66.92;99826.20;104787;1253;97163;-78
2023/06/02 07:05:16;;;;;;;13.00;7.90;;;;;;;14.06;66.98;99826.61;104630;1252;174623;-77
2023/06/02 07:07:44;;;;;;;12.80;6.80;;;;;;;14.06;66.90;99827.50;104736;1254;96143;-77
2023/06/02 07:10:14;;;;;;;11.40;5.90;;;;;;;14.08;67.05;99830.35;104791;1252;111835;-78
2023/06/02 07:12:43;;;;;;;12.20;6.30;;;;;;;14.12;67.23;99830.46;104688;1253;138946;-77
2023/06/02 07:15:11;;;;;;;12.90;6.60;;;;;;;14.17;66.94;99829.66;104792;1253;95925;-78
2023/06/02 07:17:40;;;;;;;13.70;7.10;;;;;;;14.21;66.88;99833.67;104618;1252;138971;-79
2023/06/02 07:20:09;;;;;;;16.30;6.20;;;;;;;14.22;66.68;99834.14;104746;1253;95723;-78
2023/06/02 07:22:37;;;;;;;14.00;7.00;;;;;;;14.27;66.72;99837.18;104700;1253;112449;-77
2023/06/02 07:25:05;;;;;;;12.40;6.30;;;;;;;14.32;66.57;99841.42;104636;1252;138518;-79
2023/06/02 07:27:33;;;;;;;12.40;5.80;;;;;;;14.37;66.67;99844.33;104755;1253;96017;-78
2023/06/02 07:30:00;;;;;;;12.70;5.50;;;;;;;14.40;66.63;99847.65;104598;1253;139100;-79
2023/06/02 07:32:28;;;;;;;11.20;5.70;;;;;;;14.45;66.83;99848.48;104798;1253;95978;-79
2023/06/02 07:34:55;;;;;;;13.00;6.20;;;;;;;14.51;66.77;99847.25;104757;1253;111276;-77
2023/06/02 07:37:23;;;;;;;13.30;5.80;;;;;;;14.63;66.74;99850.98;104653;1253;139642;-77
2023/06/02 07:39:50;;;;;;;10.20;5.90;;;;;;;14.80;66.34;99848.13;104773;1252;96777;-77
2023/06/02 07:42:21;;;;;;;14.70;5.70;;;;;;;15.00;65.86;99848.70;104651;1253;138524;-77
2023/06/02 07:44:48;;;;;;;12.00;5.00;;;;;;;15.23;65.37;99847.44;104785;1253;97229;-78
2023/06/02 07:47:15;;;;;;;12.20;5.30;;;;;;;15.46;64.91;99852.36;104795;1252;111320;-79
2023/06/02 07:49:43;;;;;;;13.50;5.10;;;;;;;15.81;64.35;99841.39;104724;1252;107819;-77
2023/06/02 07:52:10;;;;;;;12.20;5.00;;;;;;;16.26;63.58;99840.58;104752;1252;96047;-77
2023/06/02 07:54:38;;;;;;;17.80;5.20;;;;;;;16.64;62.58;99843.98;104601;1253;140058;-78
2023/06/02 07:57:05;;;;;;;15.10;5.20;;;;;;;16.89;61.69;99841.88;104706;1253;96595;-77
2023/06/02 07:59:33;;;;;;;10.70;4.50;;;;;;;17.07;61.05;99844.71;104754;1253;138083;-78
2023/06/02 08:02:00;;;;;;;8.70;4.40;;;;;;;17.22;60.18;99850.06;104740;1253;107697;-79
2023/06/02 08:04:28;;;;;;;7.00;4.00;;;;;;;17.36;59.77;99857.42;104720;1252;96334;-78
2023/06/02 08:06:56;;;;;;;11.60;4.00;;;;;;;17.45;59.35;99859.95;104626;1253;141554;-79
2023/06/02 08:09:24;;;;;;;16.80;6.90;;;;;;;17.49;58.71;99860.73;104743;1253;95635;-79
2023/06/02 08:11:52;;;;;;;16.40;6.60;;;;;;;17.40;58.35;99863.83;104686;1253;139786;-79
2023/06/02 08:14:20;;;;;;;12.30;4.00;;;;;;;17.26;58.15;99868.41;104793;1253;107927;-79
2023/06/02 08:16:48;;;;;;;9.70;3.60;;;;;;;17.13;58.16;99870.89;104779;1255;95950;-79
2023/06/02 08:19:20;;;;;;;13.90;4.10;;;;;;;16.96;57.83;99877.22;104656;1253;138704;-79
2023/06/02 08:21:48;;;;;;;9.40;3.70;;;;;;;16.73;57.93;99880.47;104760;1253;96635;-80
2023/06/02 08:24:15;;;;;;;10.40;3.70;;;;;;;16.50;58.01;99888.00;104642;1254;137538;-79
2023/06/02 08:26:44;;;;;;;8.60;4.00;;;;;;;16.28;58.16;99896.20;104736;1253;106837;-78
2023/06/02 08:29:12;;;;;;;13.10;4.40;;;;;;;16.12;58.77;99898.80;104755;1253;95737;-79
2023/06/02 08:31:40;;;;;;;10.20;4.00;;;;;;;16.01;58.96;99898.20;104671;1253;139207;-78
2023/06/02 08:34:09;;;;;;;10.50;4.20;;;;;;;15.89;59.18;99902.45;104808;1252;96030;-79
2023/06/02 08:36:36;;;;;;;11.60;5.40;;;;;;;15.77;59.30;99905.98;104687;1253;137774;-77
2023/06/02 08:39:06;;;;;;;14.30;4.20;;;;;;;15.71;59.61;99906.84;104726;1253;107973;-77
2023/06/02 08:41:36;;;;;;;11.20;3.80;;;;;;;15.70;59.72;99906.19;104609;1252;138006;-77
2023/06/02 08:44:04;;;;;;;14.50;3.80;;;;;;;15.78;59.89;99906.79;104714;1253;107420;-78
2023/06/02 08:46:32;;;;;;;16.70;4.60;;;;;;;15.92;59.99;99900.01;104737;1253;96154;-78
2023/06/02 08:49:01;;;;;;;8.80;4.40;;;;;;;16.10;59.80;99894.83;104654;1253;138829;-79
2023/06/02 08:51:29;;;;;;;15.80;4.40;;;;;;;16.41;59.51;99902.27;104775;1253;106812;-78
2023/06/02 08:53:57;;;;;;;10.90;3.80;;;;;;;16.67;58.90;99897.52;104603;1253;138700;-79
2023/06/02 08:56:25;;;;;;;15.00;4.20;;;;;;;16.92;58.66;99897.29;104700;1253;107369;-78
2023/06/02 08:58:53;;;;;;;14.90;4.50;;;;;;;17.17;58.11;99893.27;104777;1253;95962;-79
2023/06/02 09:01:20;;;;;;;15.70;4.40;;;;;;;17.31;57.39;99893.55;104652;1253;139627;-79
2023/06/02 09:03:49;;;;;;;12.40;4.20;;;;;;;17.43;57.07;99893.46;104793;1252;106347;-79
2023/06/02 09:06:25;;;;;;;12.90;4.00;;;;;;;17.58;56.97;99903.42;104689;1252;138039;-80
2023/06/02 09:09:03;;;;;;;10.60;4.00;;;;;;;17.70;56.76;99903.11;104738;1253;108797;-81
2023/06/02 09:11:32;;;;;;;12.90;4.50;;;;;;;17.81;56.60;99905.59;104618;1253;138068;-79
2023/06/02 09:14:00;;;;;;;12.20;4.20;;;;;;;17.77;56.09;99905.48;104851;1253;111435;-79
2023/06/02 09:16:38;;;;;;;14.20;4.60;;;;;;;17.64;55.99;99910.59;104767;1252;107323;-80
2023/06/02 09:19:06;;;;;;;10.50;4.40;;;;;;;17.49;56.01;99908.18;104640;1251;138351;-80
2023/06/02 09:21:36;;;;;;;14.40;4.60;;;;;;;17.39;56.23;99911.14;104689;1252;108137;-73
2023/06/02 09:24:05;;;;;;;17.40;4.90;;;;;;;17.27;56.29;99915.27;104618;1253;137966;-73
2023/06/02 09:26:36;;;;;;;11.00;4.00;;;;;;;17.08;56.66;99928.27;104796;1252;110485;-73
2023/06/02 09:29:06;;;;;;;9.20;3.60;;;;;;;16.88;57.04;99928.13;104658;1252;107660;-73
2023/06/02 09:31:49;;;;;;;13.00;4.10;;;;;;;16.59;57.29;99938.53;104691;1252;138231;-73
2023/06/02 09:34:17;;;;;;;13.40;4.00;;;;;;;16.32;57.97;99948.64;104763;1253;107681;-73
2023/06/02 09:36:45;;;;;;;14.50;4.30;;;;;;;16.10;58.64;99955.05;104643;1253;138508;-73
2023/06/02 09:39:13;;;;;;;14.20;4.10;;;;;;;15.90;59.23;99958.84;104721;1253;111337;-81
2023/06/02 09:41:41;;;;;;;15.00;4.30;;;;;;;15.72;59.79;99963.42;104534;1253;139123;-81
2023/06/02 09:44:16;;;;;;;18.90;4.30;;;;;;;15.52;60.07;99965.06;104852;1253;96104;-81
2023/06/02 09:46:45;;;;;;;16.20;4.30;;;;;;;15.33;60.67;99974.02;104805;1252;107101;-81
2023/06/02 09:49:13;;;;;;;13.70;4.50;;;;;;;15.15;61.10;99971.73;104695;1253;138450;-81
2023/06/02 09:51:41;;;;;;;11.30;4.20;;;;;;;15.01;61.64;99972.45;104771;1252;111481;-81
2023/06/02 09:54:09;;;;;;;17.40;5.20;;;;;;;14.87;62.11;99976.17;104593;1253;138420;-81
2023/06/02 09:56:38;;;;;;;17.80;4.80;;;;;;;14.76;62.29;99982.39;104745;1253;95953;-81
2023/06/02 09:59:06;;;;;;;14.70;4.50;;;;;;;14.67;62.72;99981.33;104810;1253;107091;-81
2023/06/02 10:01:34;;;;;;;12.00;4.00;;;;;;;14.55;62.77;99982.83;104634;1252;137078;-80
2023/06/02 10:04:02;;;;;;;14.50;4.30;;;;;;;14.45;63.09;99984.36;104730;1252;111155;-80
2023/06/02 10:06:41;;;;;;;12.00;4.00;;;;;;;14.38;63.05;99985.59;104596;1252;138454;-81
2023/06/02 10:09:24;;;;;;;14.30;4.10;;;;;;;14.36;63.34;99986.77;104780;1253;97114;-81
2023/06/02 10:12:05;;;;;;;11.80;4.10;;;;;;;14.42;63.61;99984.89;104647;1253;138525;-81
2023/06/02 10:14:54;;;;;;;10.70;4.50;;;;;;;14.49;63.46;99984.67;104778;1253;95766;-80
2023/06/02 10:17:34;;;;;;;14.70;4.50;;;;;;;14.61;63.36;99984.41;104685;1253;138455;-80
2023/06/02 10:20:20;;;;;;;7.30;4.00;;;;;;;14.75;63.50;99987.52;104778;1252;108724;-81
2023/06/02 10:23:08;;;;;;;12.70;4.10;;;;;;;14.90;63.03;99988.33;104766;1253;96209;-80
2023/06/02 10:25:49;;;;;;;10.70;3.80;;;;;;;15.05;62.83;99983.45;104643;1252;138630;-80
2023/06/02 10:28:17;;;;;;;10.00;3.50;;;;;;;15.23;62.20;99981.58;104780;1252;95739;-80
2023/06/02 10:30:45;;;;;;;10.50;3.90;;;;;;;15.43;61.78;99989.73;104598;1253;138496;-80
2023/06/02 10:33:12;;;;;;;14.90;4.00;;;;;;;15.59;61.32;99995.52;104679;1253;106927;-80
2023/06/02 10:35:59;;;;;;;12.40;3.40;;;;;;;15.67;60.71;99999.62;104700;1253;138693;-80
2023/06/02 10:38:25;;;;;;;;;;;;;;;15.65;60.01;100005.55;104747;1253;107771;-80
2023/06/02 10:40:57;;;;;;;5.20;2.90;;;;;;;15.58;59.47;100006.62;104743;1256;95969;-80
2023/06/02 10:43:24;;;;;;;8.00;2.50;;;;;;;15.50;58.86;100012.84;104673;1253;139230;-79
2023/06/02 10:45:54;;;;;;;4.90;2.40;;;;;;;15.47;58.61;100011.63;104693;1253;106443;-78
2023/06/02 10:48:38;;;;;;;8.00;2.70;;;;;;;15.48;58.46;100016.60;104648;1253;139197;-81
2023/06/02 10:51:07;;;;;;;6.90;3.10;;;;;;;15.53;58.05;100017.20;104819;1252;108430;-80
2023/06/02 10:53:56;;;;;;;9.20;2.40;;;;;;;15.59;57.82;100019.34;104597;1253;138055;-81
2023/06/02 10:56:44;;;;;;;8.90;2.30;;;;;;;15.63;57.51;100019.31;104735;1253;111444;-81
2023/06/02 10:59:31;;;;;;;6.30;2.20;;;;;;;15.65;57.27;100027.44;104746;1253;107731;-79
2023/06/02 11:01:59;;;;;;;11.40;2.30;;;;;;;15.67;56.81;100025.21;104801;1253;96230;-80
2023/06/02 11:04:33;;;;;;;6.30;2.20;;;;;;;15.70;56.43;100024.49;104780;1253;106751;-79
2023/06/02 11:07:22;;;;;;;4.50;2.10;;;;;;;15.75;56.05;100024.07;104537;1251;139753;-80
2023/06/02 11:09:52;;;;;;;7.80;2.30;;;;;;;15.79;55.45;100027.33;104712;1253;112298;-80
2023/06/02 11:12:20;;;;;;;4.80;1.90;;;;;;;15.80;55.35;100028.88;104638;1253;138631;-78
2023/06/02 11:15:17;;;;;;;5.70;2.20;;;;;;;15.78;55.19;100033.16;104716;1252;96279;-80
2023/06/02 11:17:48;;;;;;;9.10;2.10;;;;;;;15.76;55.20;100040.32;104182;1258;138544;-80
2023/06/02 11:20:17;;;;;;;9.30;2.40;;;;;;;15.74;55.12;100044.26;104338;1258;95812;-80
2023/06/02 11:22:46;;;;;;;5.50;2.00;;;;;;;15.78;54.90;100041.62;104333;1257;111919;-79